createdAt,value
2023-04-27T00:00:09.723Z,89.72
2023-04-27T00:02:58.375Z,90.24
2023-04-27T00:05:27.792Z,90.24
2023-04-27T00:07:56.508Z,90.32
2023-04-27T00:10:25.088Z,90.57
2023-04-27T00:12:53.849Z,91.03
2023-04-27T00:15:22.579Z,91.22
2023-04-27T00:17:51.616Z,92.12
2023-04-27T00:20:20.969Z,92.34
2023-04-27T00:22:49.681Z,92.71
2023-04-27T00:25:18.349Z,92.16
2023-04-27T00:27:46.995Z,92.96
2023-04-27T00:30:15.693Z,92.98
2023-04-27T00:32:44.319Z,92.81
2023-04-27T00:35:12.990Z,93.25
2023-04-27T00:37:43.776Z,94.36
2023-04-27T00:40:12.760Z,93.92
2023-04-27T00:42:41.284Z,94.86
2023-04-27T00:45:11.136Z,94.59
2023-04-27T00:47:40.239Z,95.45
2023-04-27T00:50:10.788Z,94.77
2023-04-27T00:52:40.017Z,94.83
2023-04-27T00:55:09.762Z,94.84
2023-04-27T00:57:39.185Z,94.68
2023-04-27T01:00:11.192Z,94.76
2023-04-27T01:02:40.700Z,94.90
2023-04-27T01:05:10.560Z,94.49
2023-04-27T01:07:41.210Z,94.09
2023-04-27T01:10:10.387Z,94.10
2023-04-27T01:12:39.144Z,93.68
2023-04-27T01:15:08.955Z,93.52
2023-04-27T01:17:37.764Z,93.26
2023-04-27T01:20:10.982Z,92.91
2023-04-27T01:22:39.958Z,92.83
2023-04-27T01:25:09.072Z,92.71
2023-04-27T01:27:37.647Z,92.22
2023-04-27T01:30:08.066Z,92.27
2023-04-27T01:32:39.711Z,92.13
2023-04-27T01:35:08.934Z,91.85
2023-04-27T01:37:37.743Z,91.69
2023-04-27T01:40:07.570Z,91.82
2023-04-27T01:42:36.314Z,91.33
2023-04-27T01:45:05.804Z,91.53
2023-04-27T01:47:34.518Z,91.00
2023-04-27T01:50:03.982Z,91.23
2023-04-27T01:52:32.578Z,91.10
2023-04-27T01:55:01.120Z,91.12
2023-04-27T01:57:29.660Z,91.03
2023-04-27T01:59:58.360Z,91.02
2023-04-27T02:02:27.254Z,91.11
2023-04-27T02:04:56.124Z,90.87
2023-04-27T02:07:24.688Z,90.88
2023-04-27T02:09:53.294Z,91.07
2023-04-27T02:12:21.940Z,90.93
2023-04-27T02:14:50.608Z,90.78
2023-04-27T02:17:19.324Z,90.85
2023-04-27T02:19:47.953Z,90.94
2023-04-27T02:22:17.546Z,90.90
2023-04-27T02:24:46.640Z,90.75
2023-04-27T02:27:15.347Z,91.12
2023-04-27T02:29:44.671Z,90.89
2023-04-27T02:32:13.886Z,90.67
2023-04-27T02:34:42.596Z,90.51
2023-04-27T02:37:11.501Z,90.57
2023-04-27T02:39:40.123Z,90.06
2023-04-27T02:42:08.684Z,89.89
2023-04-27T02:44:37.367Z,89.22
2023-04-27T02:47:06.235Z,89.29
2023-04-27T02:49:37.910Z,89.39
2023-04-27T02:52:07.182Z,89.10
2023-04-27T02:54:35.889Z,89.07
2023-04-27T02:57:04.440Z,89.06
2023-04-27T02:59:33.435Z,88.95
2023-04-27T03:02:02.498Z,88.86
2023-04-27T03:04:31.779Z,88.77
2023-04-27T03:07:01.896Z,88.81
2023-04-27T03:09:30.528Z,88.76
2023-04-27T03:11:59.295Z,88.65
2023-04-27T03:14:28.896Z,88.75
2023-04-27T03:16:57.676Z,88.67
2023-04-27T03:19:26.349Z,88.72
2023-04-27T03:21:55.035Z,88.58
2023-04-27T03:24:25.744Z,88.51
2023-04-27T03:26:54.378Z,88.62
2023-04-27T03:29:23.184Z,88.68
2023-04-27T03:31:51.883Z,88.76
2023-04-27T03:34:22.018Z,88.64
2023-04-27T03:36:51.234Z,88.36
2023-04-27T03:39:20.056Z,88.51
2023-04-27T03:41:48.904Z,88.36
2023-04-27T03:44:17.686Z,87.51
2023-04-27T03:46:46.436Z,87.33
2023-04-27T03:49:15.438Z,87.17
2023-04-27T03:51:44.452Z,87.28
2023-04-27T03:54:13.232Z,86.83
2023-04-27T03:56:45.420Z,86.55
2023-04-27T03:59:16.150Z,86.43
2023-04-27T04:01:51.614Z,86.11
2023-04-27T04:04:24.535Z,85.42
2023-04-27T04:06:54.595Z,85.23
2023-04-27T04:09:28.219Z,84.77
2023-04-27T04:11:58.085Z,84.16
2023-04-27T04:14:28.324Z,83.33
2023-04-27T04:16:57.252Z,83.35
2023-04-27T04:19:26.043Z,82.68
2023-04-27T04:21:57.216Z,82.28
2023-04-27T04:24:26.408Z,81.96
2023-04-27T04:26:56.182Z,81.06
2023-04-27T04:29:25.636Z,81.27
2023-04-27T04:31:56.125Z,81.07
2023-04-27T04:34:24.810Z,80.68
2023-04-27T04:36:53.694Z,79.86
2023-04-27T04:39:23.109Z,79.74
2023-04-27T04:41:51.765Z,78.93
2023-04-27T04:44:21.300Z,79.55
2023-04-27T04:46:50.430Z,79.57
2023-04-27T04:49:19.617Z,78.56
2023-04-27T04:51:48.518Z,78.68
2023-04-27T04:54:17.348Z,77.79
2023-04-27T04:56:46.661Z,77.18
2023-04-27T04:59:15.512Z,76.99
2023-04-27T05:01:44.406Z,77.25
2023-04-27T05:04:13.556Z,77.00
2023-04-27T05:06:42.607Z,76.24
2023-04-27T05:09:12.366Z,76.11
2023-04-27T05:11:41.431Z,75.25
2023-04-27T05:14:10.438Z,75.05
2023-04-27T05:16:39.522Z,74.89
2023-04-27T05:19:08.634Z,74.11
2023-04-27T05:21:37.547Z,73.86
2023-04-27T05:24:06.991Z,73.12
2023-04-27T05:26:36.031Z,72.05
2023-04-27T05:29:04.758Z,71.82
2023-04-27T05:31:33.698Z,71.21
2023-04-27T05:34:02.483Z,70.89
2023-04-27T05:36:31.319Z,69.97
2023-04-27T05:39:00.089Z,69.21
2023-04-27T05:41:30.457Z,69.30
2023-04-27T05:43:59.286Z,69.17
2023-04-27T05:46:28.158Z,69.07
2023-04-27T05:48:57.072Z,69.33
2023-04-27T05:51:25.980Z,68.77
2023-04-27T05:53:55.672Z,69.04
2023-04-27T05:56:24.423Z,68.74
2023-04-27T05:58:53.243Z,67.87
2023-04-27T06:01:21.985Z,66.93
2023-04-27T06:03:50.970Z,67.42
2023-04-27T06:06:19.987Z,67.17
2023-04-27T06:08:48.925Z,67.25
2023-04-27T06:11:18.281Z,67.23
2023-04-27T06:13:47.199Z,67.98
2023-04-27T06:16:16.505Z,67.31
2023-04-27T06:18:45.390Z,67.56
2023-04-27T06:21:14.149Z,67.19
2023-04-27T06:23:42.754Z,66.70
2023-04-27T06:26:11.739Z,65.99
2023-04-27T06:28:40.629Z,65.60
2023-04-27T06:31:09.480Z,65.70
2023-04-27T06:33:38.256Z,65.13
2023-04-27T06:36:07.752Z,64.84
2023-04-27T06:38:36.523Z,65.22
2023-04-27T06:41:06.892Z,63.40
2023-04-27T06:43:35.851Z,62.06
2023-04-27T06:46:05.652Z,62.70
2023-04-27T06:48:35.099Z,62.67
2023-04-27T06:51:04.106Z,62.31
2023-04-27T06:53:33.065Z,62.99
2023-04-27T06:56:02.190Z,63.19
2023-04-27T06:58:31.058Z,62.97
2023-04-27T07:00:59.800Z,61.57
2023-04-27T07:03:28.537Z,60.80
2023-04-27T07:05:59.256Z,60.88
2023-04-27T07:08:27.892Z,60.57
2023-04-27T07:10:56.811Z,61.67
2023-04-27T07:13:25.620Z,61.47
2023-04-27T07:16:01.479Z,60.68
2023-04-27T07:18:30.305Z,61.31
2023-04-27T07:20:59.049Z,61.41
2023-04-27T07:23:27.874Z,60.28
2023-04-27T07:25:57.903Z,57.47
2023-04-27T07:28:29.704Z,55.97
2023-04-27T07:30:58.524Z,55.94
2023-04-27T07:33:28.034Z,55.38
2023-04-27T07:35:56.853Z,54.62
2023-04-27T07:38:25.923Z,54.12
2023-04-27T07:40:54.825Z,53.56
2023-04-27T07:43:25.907Z,54.01
2023-04-27T07:45:58.838Z,53.70
2023-04-27T07:48:29.053Z,53.17
2023-04-27T07:50:58.381Z,52.82
2023-04-27T07:53:27.107Z,50.73
2023-04-27T07:55:55.744Z,49.71
2023-04-27T07:58:24.612Z,49.32
2023-04-27T08:00:53.329Z,49.73
2023-04-27T08:03:23.227Z,49.11
2023-04-27T08:05:52.449Z,48.99
2023-04-27T08:08:21.899Z,48.72
2023-04-27T08:10:50.842Z,50.26
2023-04-27T08:13:19.641Z,51.59
2023-04-27T08:15:48.414Z,52.21
2023-04-27T08:18:18.194Z,53.05
2023-04-27T08:20:47.028Z,52.80
2023-04-27T08:23:15.934Z,52.23
2023-04-27T08:25:44.641Z,52.31
2023-04-27T08:28:15.024Z,49.90
2023-04-27T08:30:44.339Z,49.18
2023-04-27T08:33:13.563Z,48.19
2023-04-27T08:35:42.226Z,47.11
2023-04-27T08:38:10.973Z,46.63
2023-04-27T08:40:44.133Z,46.75
2023-04-27T08:43:12.924Z,46.50
2023-04-27T08:45:53.478Z,46.56
2023-04-27T08:48:22.500Z,47.07
2023-04-27T08:50:52.087Z,47.27
2023-04-27T08:53:24.311Z,46.81
2023-04-27T08:55:53.224Z,46.22
2023-04-27T08:58:22.026Z,45.70
2023-04-27T09:00:52.673Z,44.58
2023-04-27T09:03:27.737Z,42.90
2023-04-27T09:06:05.259Z,43.27
2023-04-27T09:08:51.475Z,43.71
2023-04-27T09:11:31.992Z,44.30
2023-04-27T09:14:03.644Z,44.70
2023-04-27T09:16:34.470Z,44.54
2023-04-27T09:19:03.267Z,44.41
2023-04-27T09:21:32.894Z,44.76
2023-04-27T09:24:15.316Z,45.28
2023-04-27T09:26:50.453Z,45.01
2023-04-27T09:29:19.189Z,45.90
2023-04-27T09:31:47.853Z,46.28
2023-04-27T09:34:16.665Z,46.28
2023-04-27T09:36:45.689Z,45.89
2023-04-27T09:39:15.764Z,46.93
2023-04-27T09:41:45.152Z,46.46
2023-04-27T09:44:14.742Z,46.66
2023-04-27T09:46:45.850Z,46.87
2023-04-27T09:49:16.440Z,47.44
2023-04-27T09:51:45.198Z,47.59
2023-04-27T09:54:15.045Z,48.16
2023-04-27T09:57:21.807Z,48.32
2023-04-27T10:00:40.991Z,48.63
2023-04-27T10:03:33.196Z,48.69
2023-04-27T10:06:36.136Z,49.46
2023-04-27T10:09:09.256Z,48.92
2023-04-27T10:11:44.792Z,49.17
2023-04-27T10:14:19.943Z,48.61
2023-04-27T10:16:59.890Z,48.07
2023-04-27T10:19:28.940Z,48.10
2023-04-27T10:22:08.622Z,48.18
2023-04-27T10:24:44.341Z,47.87
2023-04-27T10:27:20.186Z,48.34
2023-04-27T10:29:50.526Z,48.49
2023-04-27T10:32:26.966Z,48.39
2023-04-27T10:35:09.124Z,48.08
2023-04-27T10:37:43.064Z,48.27
2023-04-27T10:40:19.959Z,48.47
2023-04-27T10:42:49.876Z,48.57
2023-04-27T10:45:31.508Z,48.73
2023-04-27T10:48:01.962Z,48.26
2023-04-27T10:50:32.504Z,48.45
2023-04-27T10:53:05.432Z,48.60
2023-04-27T10:55:36.305Z,48.19
2023-04-27T10:58:09.635Z,48.65
2023-04-27T11:00:44.511Z,48.17
2023-04-27T11:03:19.782Z,48.07
2023-04-27T11:05:58.984Z,47.60
2023-04-27T11:08:27.866Z,46.99
2023-04-27T11:10:57.388Z,46.27
2023-04-27T11:13:28.944Z,46.27
2023-04-27T11:16:00.315Z,46.72
2023-04-27T11:18:36.075Z,47.70
2023-04-27T11:21:17.267Z,47.53
2023-04-27T11:23:46.095Z,47.93
2023-04-27T11:26:21.823Z,48.01
2023-04-27T11:29:12.573Z,48.19
2023-04-27T11:31:51.449Z,48.13
2023-04-27T11:34:23.640Z,48.45
2023-04-27T11:39:39.165Z,48.60
2023-04-27T11:42:29.150Z,48.75
2023-04-27T11:45:06.751Z,46.65
2023-04-27T11:47:39.437Z,45.66
2023-04-27T11:50:08.800Z,46.22
2023-04-27T11:52:40.502Z,45.95
2023-04-27T11:55:15.994Z,46.81
2023-04-27T11:57:45.207Z,46.15
2023-04-27T12:00:15.378Z,46.20
2023-04-27T12:02:44.961Z,46.80
2023-04-27T12:05:14.747Z,47.29
2023-04-27T12:07:43.833Z,48.19
2023-04-27T12:10:13.077Z,48.78
2023-04-27T12:12:41.945Z,49.42
2023-04-27T12:15:11.348Z,49.84
2023-04-27T12:17:40.381Z,49.51
2023-04-27T12:20:10.143Z,49.57
2023-04-27T12:22:38.919Z,50.12
2023-04-27T12:25:08.112Z,49.64
2023-04-27T12:27:36.756Z,49.76
2023-04-27T12:30:07.049Z,50.05
2023-04-27T12:32:36.268Z,49.81
2023-04-27T12:35:07.004Z,49.82
2023-04-27T12:37:35.868Z,49.79
2023-04-27T12:40:09.256Z,49.04
2023-04-27T12:42:41.222Z,48.91
2023-04-27T12:45:11.038Z,48.66
2023-04-27T12:47:54.548Z,48.63
2023-04-27T12:50:32.664Z,49.04
2023-04-27T12:53:01.537Z,49.29
2023-04-27T12:55:33.674Z,49.18
2023-04-27T12:58:03.570Z,49.19
2023-04-27T13:00:32.444Z,48.85
2023-04-27T13:03:01.431Z,48.87
2023-04-27T13:05:32.084Z,49.44
2023-04-27T13:08:01.264Z,49.76
2023-04-27T13:10:30.059Z,49.11
2023-04-27T13:13:00.205Z,48.77
2023-04-27T13:15:29.198Z,48.41
2023-04-27T13:17:59.333Z,48.92
2023-04-27T13:20:28.280Z,49.34
2023-04-27T13:22:57.174Z,49.82
2023-04-27T13:25:26.291Z,50.19
2023-04-27T13:27:55.017Z,50.38
2023-04-27T13:30:23.930Z,49.82
2023-04-27T13:32:53.458Z,49.81
2023-04-27T13:35:23.899Z,49.94
2023-04-27T13:37:54.014Z,49.44
2023-04-27T13:40:22.887Z,48.76
2023-04-27T13:42:52.180Z,49.00
2023-04-27T13:45:21.571Z,50.16
2023-04-27T13:47:50.688Z,50.41
2023-04-27T13:50:19.618Z,50.60
2023-04-27T13:52:48.492Z,50.07
2023-04-27T13:55:17.251Z,49.22
2023-04-27T13:57:46.254Z,49.21
2023-04-27T14:00:15.550Z,47.33
2023-04-27T14:02:44.346Z,46.91
2023-04-27T14:05:13.309Z,46.49
2023-04-27T14:07:42.313Z,45.28
2023-04-27T14:10:12.348Z,43.61
2023-04-27T14:12:41.488Z,43.49
2023-04-27T14:15:11.037Z,43.95
2023-04-27T14:17:39.870Z,43.75
2023-04-27T14:20:09.411Z,43.80
2023-04-27T14:22:38.310Z,44.67
2023-04-27T14:25:07.875Z,45.22
2023-04-27T14:27:37.765Z,45.77
2023-04-27T14:30:08.002Z,46.09
2023-04-27T14:32:36.794Z,45.76
2023-04-27T14:35:06.040Z,45.94
2023-04-27T14:37:34.642Z,45.74
2023-04-27T14:40:05.025Z,45.88
2023-04-27T14:42:42.768Z,46.39
2023-04-27T14:45:14.009Z,46.57
2023-04-27T14:47:43.087Z,47.41
2023-04-27T14:50:12.226Z,47.12
2023-04-27T14:52:43.408Z,46.79
2023-04-27T14:55:15.009Z,46.73
2023-04-27T14:57:43.894Z,44.35
2023-04-27T15:00:15.062Z,44.31
2023-04-27T15:02:44.091Z,45.17
2023-04-27T15:05:13.126Z,46.05
2023-04-27T15:07:42.064Z,46.51
2023-04-27T15:10:11.204Z,46.97
2023-04-27T15:12:40.046Z,47.01
2023-04-27T15:15:10.502Z,48.02
2023-04-27T15:17:39.847Z,47.85
2023-04-27T15:20:09.189Z,48.36
2023-04-27T15:22:37.923Z,48.32
2023-04-27T15:25:08.641Z,48.00
2023-04-27T15:27:37.880Z,47.93
2023-04-27T15:30:08.113Z,47.96
2023-04-27T15:32:37.222Z,48.34
2023-04-27T15:35:06.894Z,48.12
2023-04-27T15:37:37.005Z,47.98
2023-04-27T15:40:10.198Z,47.99
2023-04-27T15:42:38.920Z,47.99
2023-04-27T15:45:10.268Z,48.11
2023-04-27T15:47:39.101Z,48.32
2023-04-27T15:50:08.478Z,48.16
2023-04-27T15:52:37.150Z,48.31
2023-04-27T15:55:06.996Z,48.27
2023-04-27T15:57:35.759Z,48.84
2023-04-27T16:00:10.680Z,49.73
2023-04-27T16:02:40.693Z,50.49
2023-04-27T16:05:10.665Z,51.06
2023-04-27T16:07:40.026Z,51.36
2023-04-27T16:10:10.251Z,51.90
2023-04-27T16:12:39.441Z,51.51
2023-04-27T16:15:11.230Z,51.50
2023-04-27T16:17:43.380Z,51.53
2023-04-27T16:20:12.221Z,51.54
2023-04-27T16:22:40.962Z,51.47
2023-04-27T16:25:13.354Z,51.70
2023-04-27T16:27:42.826Z,51.32
2023-04-27T16:30:11.872Z,51.47
2023-04-27T16:32:40.732Z,51.75
2023-04-27T16:35:10.169Z,51.84
2023-04-27T16:37:39.000Z,51.51
2023-04-27T16:40:08.743Z,51.34
2023-04-27T16:42:37.534Z,51.11
2023-04-27T16:45:09.122Z,50.74
2023-04-27T16:47:39.506Z,51.14
2023-04-27T16:50:11.630Z,51.38
2023-04-27T16:52:40.745Z,51.75
2023-04-27T16:55:09.691Z,51.65
2023-04-27T16:57:38.286Z,52.21
2023-04-27T17:00:09.975Z,52.78
2023-04-27T17:02:40.516Z,53.19
2023-04-27T17:05:10.794Z,53.83
2023-04-27T17:07:39.473Z,54.04
2023-04-27T17:10:09.634Z,54.75
2023-04-27T17:12:39.473Z,55.20
2023-04-27T17:15:08.864Z,55.33
2023-04-27T17:17:37.692Z,55.54
2023-04-27T17:20:08.060Z,55.65
2023-04-27T17:22:37.279Z,55.91
2023-04-27T17:25:06.710Z,56.28
2023-04-27T17:27:35.395Z,56.52
2023-04-27T17:30:05.723Z,56.73
2023-04-27T17:32:34.863Z,56.46
2023-04-27T17:35:03.799Z,56.17
2023-04-27T17:37:32.674Z,56.35
2023-04-27T17:40:01.524Z,56.33
2023-04-27T17:42:30.424Z,56.40
2023-04-27T17:44:59.282Z,56.30
2023-04-27T17:47:28.251Z,56.15
2023-04-27T17:49:57.202Z,56.38
2023-04-27T17:52:26.087Z,56.03
2023-04-27T17:54:55.997Z,56.24
2023-04-27T17:57:24.646Z,56.24
2023-04-27T17:59:54.597Z,56.28
2023-04-27T18:02:23.448Z,56.37
2023-04-27T18:04:53.045Z,56.32
2023-04-27T18:07:21.780Z,56.17
2023-04-27T18:09:50.675Z,55.99
2023-04-27T18:12:19.668Z,55.84
2023-04-27T18:14:48.303Z,56.04
2023-04-27T18:17:17.175Z,55.74
2023-04-27T18:19:46.802Z,56.05
2023-04-27T18:22:15.634Z,56.25
2023-04-27T18:24:44.462Z,56.42
2023-04-27T18:27:16.686Z,56.60
2023-04-27T18:29:45.901Z,56.89
2023-04-27T18:32:14.830Z,56.95
2023-04-27T18:34:43.738Z,57.05
2023-04-27T18:37:12.416Z,57.14
2023-04-27T18:39:42.576Z,57.18
2023-04-27T18:42:11.285Z,57.14
2023-04-27T18:44:40.487Z,57.25
2023-04-27T18:47:09.192Z,57.42
2023-04-27T18:49:38.024Z,57.52
2023-04-27T18:52:11.738Z,57.69
2023-04-27T18:54:40.585Z,57.85
2023-04-27T18:57:09.256Z,57.99
2023-04-27T18:59:39.657Z,57.94
2023-04-27T19:02:09.075Z,58.15
2023-04-27T19:04:37.933Z,58.73
2023-04-27T19:07:07.453Z,59.05
2023-04-27T19:09:36.177Z,59.12
2023-04-27T19:12:05.902Z,59.21
2023-04-27T19:14:38.803Z,59.36
2023-04-27T19:17:07.989Z,59.86
2023-04-27T19:19:37.341Z,59.97
2023-04-27T19:22:07.425Z,59.96
2023-04-27T19:24:40.010Z,60.22
2023-04-27T19:27:11.788Z,60.07
2023-04-27T19:30:02.134Z,60.42
2023-04-27T19:32:34.411Z,60.60
2023-04-27T19:35:05.612Z,60.60
2023-04-27T19:37:34.924Z,60.61
2023-04-27T19:40:04.762Z,60.93
2023-04-27T19:42:33.639Z,60.72
2023-04-27T19:45:04.303Z,60.77
2023-04-27T19:47:35.867Z,61.05
2023-04-27T19:50:10.270Z,61.17
2023-04-27T19:52:39.069Z,61.89
2023-04-27T19:55:09.272Z,62.36
2023-04-27T19:57:38.081Z,62.54
2023-04-27T20:00:12.269Z,62.63
2023-04-27T20:02:44.019Z,63.06
2023-04-27T20:05:13.708Z,63.39
2023-04-27T20:07:42.790Z,63.54
2023-04-27T20:10:11.474Z,63.39
2023-04-27T20:12:55.483Z,64.27
2023-04-27T20:15:25.500Z,64.07
2023-04-27T20:17:54.410Z,64.63
2023-04-27T20:20:23.209Z,64.29
2023-04-27T20:22:52.005Z,65.28
2023-04-27T20:25:20.851Z,64.75
2023-04-27T20:27:50.034Z,64.95
2023-04-27T20:30:18.945Z,65.16
2023-04-27T20:32:47.564Z,64.98
2023-04-27T20:35:16.226Z,65.30
2023-04-27T20:37:44.773Z,65.24
2023-04-27T20:40:17.797Z,65.44
2023-04-27T20:42:46.792Z,65.11
2023-04-27T20:45:15.832Z,65.64
2023-04-27T20:47:44.683Z,65.70
2023-04-27T20:50:13.701Z,65.98
2023-04-27T20:53:51.690Z,66.84
2023-04-27T20:56:20.729Z,66.37
2023-04-27T20:58:49.546Z,66.26
2023-04-27T21:01:18.248Z,66.46
2023-04-27T21:03:47.258Z,67.33
2023-04-27T21:06:16.286Z,67.35
2023-04-27T21:08:45.042Z,67.30
2023-04-27T21:11:15.073Z,67.64
2023-04-27T21:13:46.433Z,68.01
2023-04-27T21:16:15.200Z,67.69
2023-04-27T21:18:43.902Z,67.44
2023-04-27T21:21:12.641Z,67.33
2023-04-27T21:23:41.294Z,67.48
2023-04-27T21:26:10.988Z,67.21
2023-04-27T21:28:40.573Z,67.72
2023-04-27T21:31:09.851Z,68.22
2023-04-27T21:33:38.697Z,68.55
2023-04-27T21:36:07.598Z,69.10
2023-04-27T21:38:36.335Z,69.02
2023-04-27T21:41:05.108Z,69.26
2023-04-27T21:43:34.093Z,68.80
2023-04-27T21:46:02.968Z,69.21
2023-04-27T21:48:31.613Z,69.13
2023-04-27T21:51:00.265Z,69.18
2023-04-27T21:53:30.750Z,69.27
2023-04-27T21:56:00.020Z,69.17
2023-04-27T21:58:28.821Z,69.51
2023-04-27T22:00:57.464Z,69.69
2023-04-27T22:03:26.823Z,69.69
2023-04-27T22:05:57.789Z,69.83
2023-04-27T22:08:26.460Z,69.73
2023-04-27T22:10:56.482Z,69.49
2023-04-27T22:13:25.172Z,69.35
2023-04-27T22:15:53.823Z,69.71
2023-04-27T22:18:22.536Z,69.62
2023-04-27T22:20:51.312Z,69.55
2023-04-27T22:23:20.815Z,69.93
2023-04-27T22:25:49.691Z,69.89
2023-04-27T22:28:18.357Z,69.82
2023-04-27T22:30:47.160Z,69.80
2023-04-27T22:33:16.895Z,69.91
2023-04-27T22:35:46.304Z,69.90
2023-04-27T22:38:15.129Z,69.82
2023-04-27T22:40:43.893Z,70.03
2023-04-27T22:43:12.710Z,69.65
2023-04-27T22:45:41.374Z,69.51
2023-04-27T22:48:10.187Z,69.52
2023-04-27T22:50:39.613Z,69.75
2023-04-27T22:53:08.439Z,70.13
2023-04-27T22:55:37.191Z,70.87
2023-04-27T22:58:06.205Z,70.57
2023-04-27T23:00:34.999Z,70.47
2023-04-27T23:03:03.829Z,70.59
2023-04-27T23:05:33.165Z,70.62
2023-04-27T23:08:03.209Z,70.12
2023-04-27T23:10:31.879Z,69.76
2023-04-27T23:13:02.151Z,69.51
2023-04-27T23:15:31.862Z,70.11
2023-04-27T23:18:00.569Z,70.11
2023-04-27T23:20:29.427Z,70.32
2023-04-27T23:22:58.342Z,70.80
2023-04-27T23:25:27.105Z,70.54
2023-04-27T23:27:55.792Z,70.31
2023-04-27T23:30:24.446Z,70.27
2023-04-27T23:32:53.319Z,70.10
2023-04-27T23:35:22.248Z,70.20
2023-04-27T23:37:50.933Z,70.52
2023-04-27T23:40:19.650Z,70.17
2023-04-27T23:42:49.652Z,70.47
2023-04-27T23:45:21.132Z,70.57
2023-04-27T23:47:49.877Z,70.81
2023-04-27T23:50:18.732Z,70.95
2023-04-27T23:52:47.773Z,70.98
2023-04-27T23:55:16.912Z,71.07
2023-04-27T23:57:45.684Z,71.06
